sensor_id;sensor_type;location;lat;lon;timestamp;temperature;humidity
3001;DHT22;1510;51.072;6.678;2024-03-22T00:00:18;10.50;99.90
3001;DHT22;1510;51.072;6.678;2024-03-22T00:02:46;10.50;99.90
3001;DHT22;1510;51.072;6.678;2024-03-22T00:05:12;10.50;99.90
3001;DHT22;1510;51.072;6.678;2024-03-22T00:07:39;10.50;99.90
3001;DHT22;1510;51.072;6.678;2024-03-22T00:10:05;10.50;99.90
3001;DHT22;1510;51.072;6.678;2024-03-22T00:12:32;10.50;99.90
3001;DHT22;1510;51.072;6.678;2024-03-22T00:14:58;10.50;99.90
3001;DHT22;1510;51.072;6.678;2024-03-22T00:17:25;10.50;99.90
3001;DHT22;1510;51.072;6.678;2024-03-22T00:19:52;10.50;99.90
3001;DHT22;1510;51.072;6.678;2024-03-22T00:22:19;10.50;99.90
3001;DHT22;1510;51.072;6.678;2024-03-22T00:24:45;10.50;99.90
3001;DHT22;1510;51.072;6.678;2024-03-22T00:27:12;10.50;99.90
3001;DHT22;1510;51.072;6.678;2024-03-22T00:29:38;10.50;99.90
3001;DHT22;1510;51.072;6.678;2024-03-22T00:32:05;10.50;99.90
3001;DHT22;1510;51.072;6.678;2024-03-22T00:34:32;10.50;99.90
3001;DHT22;1510;51.072;6.678;2024-03-22T00:37:01;10.50;99.90
3001;DHT22;1510;51.072;6.678;2024-03-22T00:39:26;10.40;99.90
3001;DHT22;1510;51.072;6.678;2024-03-22T00:41:53;10.40;99.90
3001;DHT22;1510;51.072;6.678;2024-03-22T00:44:19;10.40;99.90
3001;DHT22;1510;51.072;6.678;2024-03-22T00:46:46;10.40;99.90
3001;DHT22;1510;51.072;6.678;2024-03-22T00:49:12;10.40;99.90
3001;DHT22;1510;51.072;6.678;2024-03-22T00:51:39;10.50;99.90
3001;DHT22;1510;51.072;6.678;2024-03-22T00:54:06;10.50;99.90
3001;DHT22;1510;51.072;6.678;2024-03-22T00:56:33;10.50;99.90
3001;DHT22;1510;51.072;6.678;2024-03-22T00:58:59;10.50;99.90
3001;DHT22;1510;51.072;6.678;2024-03-22T01:01:25;10.50;99.90
3001;DHT22;1510;51.072;6.678;2024-03-22T01:03:51;10.50;99.90
3001;DHT22;1510;51.072;6.678;2024-03-22T01:06:18;10.50;99.90
3001;DHT22;1510;51.072;6.678;2024-03-22T01:08:49;10.50;99.90
3001;DHT22;1510;51.072;6.678;2024-03-22T01:11:18;10.50;99.90
3001;DHT22;1510;51.072;6.678;2024-03-22T01:13:44;10.50;99.90
3001;DHT22;1510;51.072;6.678;2024-03-22T01:16:11;10.60;99.90
3001;DHT22;1510;51.072;6.678;2024-03-22T01:18:37;10.60;99.90
3001;DHT22;1510;51.072;6.678;2024-03-22T01:21:04;10.60;99.90
3001;DHT22;1510;51.072;6.678;2024-03-22T01:23:30;10.50;99.90
3001;DHT22;1510;51.072;6.678;2024-03-22T01:25:58;10.50;99.90
3001;DHT22;1510;51.072;6.678;2024-03-22T01:28:25;10.50;99.90
3001;DHT22;1510;51.072;6.678;2024-03-22T01:30:51;10.50;99.90
3001;DHT22;1510;51.072;6.678;2024-03-22T01:33:17;10.40;99.90
3001;DHT22;1510;51.072;6.678;2024-03-22T01:35:44;10.40;99.90
3001;DHT22;1510;51.072;6.678;2024-03-22T01:38:10;10.40;99.90
3001;DHT22;1510;51.072;6.678;2024-03-22T01:40:37;10.40;99.90
3001;DHT22;1510;51.072;6.678;2024-03-22T01:43:03;10.40;99.90
3001;DHT22;1510;51.072;6.678;2024-03-22T01:45:32;10.40;99.90
3001;DHT22;1510;51.072;6.678;2024-03-22T01:47:59;10.30;99.90
3001;DHT22;1510;51.072;6.678;2024-03-22T01:50:26;10.30;99.90
3001;DHT22;1510;51.072;6.678;2024-03-22T01:52:52;10.30;99.90
3001;DHT22;1510;51.072;6.678;2024-03-22T01:55:19;10.30;99.90
3001;DHT22;1510;51.072;6.678;2024-03-22T01:57:45;10.30;99.90
3001;DHT22;1510;51.072;6.678;2024-03-22T02:00:13;10.30;99.90
3001;DHT22;1510;51.072;6.678;2024-03-22T02:02:40;10.30;99.90
3001;DHT22;1510;51.072;6.678;2024-03-22T02:05:14;10.30;99.90
3001;DHT22;1510;51.072;6.678;2024-03-22T02:07:41;10.40;99.90
3001;DHT22;1510;51.072;6.678;2024-03-22T02:10:09;10.40;99.90
3001;DHT22;1510;51.072;6.678;2024-03-22T02:12:36;10.40;99.90
3001;DHT22;1510;51.072;6.678;2024-03-22T02:15:04;10.40;99.90
3001;DHT22;1510;51.072;6.678;2024-03-22T02:17:29;10.40;99.90
3001;DHT22;1510;51.072;6.678;2024-03-22T02:19:58;10.50;99.90
3001;DHT22;1510;51.072;6.678;2024-03-22T02:22:24;10.40;99.90
3001;DHT22;1510;51.072;6.678;2024-03-22T02:24:52;10.40;99.90
3001;DHT22;1510;51.072;6.678;2024-03-22T02:27:18;10.50;99.90
3001;DHT22;1510;51.072;6.678;2024-03-22T02:29:45;10.50;99.90
3001;DHT22;1510;51.072;6.678;2024-03-22T02:32:11;10.50;99.90
3001;DHT22;1510;51.072;6.678;2024-03-22T02:34:37;10.50;99.90
3001;DHT22;1510;51.072;6.678;2024-03-22T02:37:03;10.50;99.90
3001;DHT22;1510;51.072;6.678;2024-03-22T02:39:30;10.50;99.90
3001;DHT22;1510;51.072;6.678;2024-03-22T02:41:57;10.50;99.90
3001;DHT22;1510;51.072;6.678;2024-03-22T02:44:24;10.50;99.90
3001;DHT22;1510;51.072;6.678;2024-03-22T02:46:50;10.50;99.90
3001;DHT22;1510;51.072;6.678;2024-03-22T02:49:16;10.60;99.90
3001;DHT22;1510;51.072;6.678;2024-03-22T02:51:42;10.60;99.90
3001;DHT22;1510;51.072;6.678;2024-03-22T02:54:09;10.60;99.90
3001;DHT22;1510;51.072;6.678;2024-03-22T02:56:35;10.60;99.90
3001;DHT22;1510;51.072;6.678;2024-03-22T02:59:03;10.60;99.90
3001;DHT22;1510;51.072;6.678;2024-03-22T03:01:29;10.60;99.90
3001;DHT22;1510;51.072;6.678;2024-03-22T03:03:55;10.70;99.90
3001;DHT22;1510;51.072;6.678;2024-03-22T03:06:21;10.70;99.90
3001;DHT22;1510;51.072;6.678;2024-03-22T03:08:48;10.70;99.90
3001;DHT22;1510;51.072;6.678;2024-03-22T03:11:14;10.70;99.90
3001;DHT22;1510;51.072;6.678;2024-03-22T03:13:41;10.60;99.90
3001;DHT22;1510;51.072;6.678;2024-03-22T03:16:08;10.60;99.90
3001;DHT22;1510;51.072;6.678;2024-03-22T03:18:35;10.50;99.90
3001;DHT22;1510;51.072;6.678;2024-03-22T03:21:01;10.50;99.90
3001;DHT22;1510;51.072;6.678;2024-03-22T03:23:27;10.40;99.90
3001;DHT22;1510;51.072;6.678;2024-03-22T03:25:53;10.30;99.90
3001;DHT22;1510;51.072;6.678;2024-03-22T03:28:20;10.30;99.90
3001;DHT22;1510;51.072;6.678;2024-03-22T03:30:46;10.20;99.90
3001;DHT22;1510;51.072;6.678;2024-03-22T03:33:14;10.10;99.90
3001;DHT22;1510;51.072;6.678;2024-03-22T03:35:40;10.10;99.90
3001;DHT22;1510;51.072;6.678;2024-03-22T03:38:06;10.00;99.90
3001;DHT22;1510;51.072;6.678;2024-03-22T03:40:32;10.00;99.90
3001;DHT22;1510;51.072;6.678;2024-03-22T03:42:59;10.00;99.90
3001;DHT22;1510;51.072;6.678;2024-03-22T03:45:25;10.00;99.90
3001;DHT22;1510;51.072;6.678;2024-03-22T03:47:51;10.10;99.90
3001;DHT22;1510;51.072;6.678;2024-03-22T03:50:19;10.00;99.90
3001;DHT22;1510;51.072;6.678;2024-03-22T03:52:45;10.00;99.90
3001;DHT22;1510;51.072;6.678;2024-03-22T03:55:11;10.00;99.90
3001;DHT22;1510;51.072;6.678;2024-03-22T03:57:38;9.90;99.90
3001;DHT22;1510;51.072;6.678;2024-03-22T04:00:05;9.90;99.90
3001;DHT22;1510;51.072;6.678;2024-03-22T04:02:32;9.80;99.90
3001;DHT22;1510;51.072;6.678;2024-03-22T04:04:58;9.70;99.90
3001;DHT22;1510;51.072;6.678;2024-03-22T04:07:27;9.70;99.90
3001;DHT22;1510;51.072;6.678;2024-03-22T04:09:54;9.60;99.90
3001;DHT22;1510;51.072;6.678;2024-03-22T04:12:21;9.60;99.90
3001;DHT22;1510;51.072;6.678;2024-03-22T04:14:47;9.60;99.90
3001;DHT22;1510;51.072;6.678;2024-03-22T04:17:14;9.60;99.90
3001;DHT22;1510;51.072;6.678;2024-03-22T04:19:39;9.60;99.90
3001;DHT22;1510;51.072;6.678;2024-03-22T04:22:06;9.60;99.90
3001;DHT22;1510;51.072;6.678;2024-03-22T04:24:34;9.60;99.90
3001;DHT22;1510;51.072;6.678;2024-03-22T04:27:00;9.60;99.90
3001;DHT22;1510;51.072;6.678;2024-03-22T04:29:26;9.60;99.90
3001;DHT22;1510;51.072;6.678;2024-03-22T04:31:53;9.70;99.90
3001;DHT22;1510;51.072;6.678;2024-03-22T04:34:19;9.70;99.90
3001;DHT22;1510;51.072;6.678;2024-03-22T04:36:46;9.70;99.90
3001;DHT22;1510;51.072;6.678;2024-03-22T04:39:12;9.80;99.90
3001;DHT22;1510;51.072;6.678;2024-03-22T04:41:40;9.90;99.90
3001;DHT22;1510;51.072;6.678;2024-03-22T04:44:07;10.00;99.90
3001;DHT22;1510;51.072;6.678;2024-03-22T04:46:34;10.00;99.90
3001;DHT22;1510;51.072;6.678;2024-03-22T04:49:00;10.10;99.90
3001;DHT22;1510;51.072;6.678;2024-03-22T04:51:27;10.20;99.90
3001;DHT22;1510;51.072;6.678;2024-03-22T04:53:52;10.20;99.90
3001;DHT22;1510;51.072;6.678;2024-03-22T04:56:19;10.20;99.90
3001;DHT22;1510;51.072;6.678;2024-03-22T04:58:47;10.30;99.90
3001;DHT22;1510;51.072;6.678;2024-03-22T05:01:13;10.40;99.90
3001;DHT22;1510;51.072;6.678;2024-03-22T05:03:40;10.40;99.90
3001;DHT22;1510;51.072;6.678;2024-03-22T05:06:06;10.50;99.90
3001;DHT22;1510;51.072;6.678;2024-03-22T05:08:33;10.50;99.90
3001;DHT22;1510;51.072;6.678;2024-03-22T05:10:59;10.50;99.90
3001;DHT22;1510;51.072;6.678;2024-03-22T05:13:26;10.60;99.90
3001;DHT22;1510;51.072;6.678;2024-03-22T05:15:53;10.60;99.90
3001;DHT22;1510;51.072;6.678;2024-03-22T05:18:20;10.70;99.90
3001;DHT22;1510;51.072;6.678;2024-03-22T05:20:46;10.70;99.90
3001;DHT22;1510;51.072;6.678;2024-03-22T05:23:12;10.80;99.90
3001;DHT22;1510;51.072;6.678;2024-03-22T05:25:38;10.90;99.90
3001;DHT22;1510;51.072;6.678;2024-03-22T05:28:05;11.00;99.90
3001;DHT22;1510;51.072;6.678;2024-03-22T05:30:31;11.00;99.90
3001;DHT22;1510;51.072;6.678;2024-03-22T05:32:59;11.10;99.90
3001;DHT22;1510;51.072;6.678;2024-03-22T05:35:26;11.10;99.90
3001;DHT22;1510;51.072;6.678;2024-03-22T05:37:53;11.20;99.90
3001;DHT22;1510;51.072;6.678;2024-03-22T05:40:19;11.20;99.90
3001;DHT22;1510;51.072;6.678;2024-03-22T05:42:45;11.30;99.90
3001;DHT22;1510;51.072;6.678;2024-03-22T05:45:11;11.40;99.90
3001;DHT22;1510;51.072;6.678;2024-03-22T05:47:38;11.50;99.90
3001;DHT22;1510;51.072;6.678;2024-03-22T05:50:06;11.70;99.90
3001;DHT22;1510;51.072;6.678;2024-03-22T05:52:34;11.70;99.90
3001;DHT22;1510;51.072;6.678;2024-03-22T05:54:59;11.90;99.90
3001;DHT22;1510;51.072;6.678;2024-03-22T05:57:26;11.90;99.90
3001;DHT22;1510;51.072;6.678;2024-03-22T05:59:52;12.00;99.90
3001;DHT22;1510;51.072;6.678;2024-03-22T06:02:19;12.00;99.90
3001;DHT22;1510;51.072;6.678;2024-03-22T06:04:45;12.10;99.90
3001;DHT22;1510;51.072;6.678;2024-03-22T06:07:14;12.10;99.90
3001;DHT22;1510;51.072;6.678;2024-03-22T06:09:42;12.10;99.90
3001;DHT22;1510;51.072;6.678;2024-03-22T06:12:12;12.10;99.90
3001;DHT22;1510;51.072;6.678;2024-03-22T06:14:38;12.20;99.40
3001;DHT22;1510;51.072;6.678;2024-03-22T06:17:05;12.20;99.20
3001;DHT22;1510;51.072;6.678;2024-03-22T06:19:31;12.20;98.60
3001;DHT22;1510;51.072;6.678;2024-03-22T06:21:58;12.20;98.60
3001;DHT22;1510;51.072;6.678;2024-03-22T06:24:25;12.30;98.60
3001;DHT22;1510;51.072;6.678;2024-03-22T06:26:52;12.30;98.60
3001;DHT22;1510;51.072;6.678;2024-03-22T06:29:18;12.40;98.70
3001;DHT22;1510;51.072;6.678;2024-03-22T06:31:44;12.40;98.60
3001;DHT22;1510;51.072;6.678;2024-03-22T06:34:10;12.50;98.70
3001;DHT22;1510;51.072;6.678;2024-03-22T06:36:37;12.50;98.70
3001;DHT22;1510;51.072;6.678;2024-03-22T06:39:03;12.60;98.70
3001;DHT22;1510;51.072;6.678;2024-03-22T06:41:34;12.70;98.70
3001;DHT22;1510;51.072;6.678;2024-03-22T06:44:00;12.80;98.80
3001;DHT22;1510;51.072;6.678;2024-03-22T06:46:27;12.80;98.80
3001;DHT22;1510;51.072;6.678;2024-03-22T06:48:53;12.90;98.80
3001;DHT22;1510;51.072;6.678;2024-03-22T06:51:20;13.00;98.80
3001;DHT22;1510;51.072;6.678;2024-03-22T06:53:46;13.10;98.90
3001;DHT22;1510;51.072;6.678;2024-03-22T06:56:13;13.30;98.90
3001;DHT22;1510;51.072;6.678;2024-03-22T06:58:40;13.30;98.60
3001;DHT22;1510;51.072;6.678;2024-03-22T07:01:07;13.40;96.00
3001;DHT22;1510;51.072;6.678;2024-03-22T07:03:33;13.50;95.80
3001;DHT22;1510;51.072;6.678;2024-03-22T07:06:00;13.60;94.90
3001;DHT22;1510;51.072;6.678;2024-03-22T07:08:26;13.60;92.50
3001;DHT22;1510;51.072;6.678;2024-03-22T07:10:53;13.60;92.60
3001;DHT22;1510;51.072;6.678;2024-03-22T07:13:20;13.60;94.20
3001;DHT22;1510;51.072;6.678;2024-03-22T07:15:48;13.60;94.10
3001;DHT22;1510;51.072;6.678;2024-03-22T07:18:15;13.60;92.50
3001;DHT22;1510;51.072;6.678;2024-03-22T07:20:41;13.50;92.50
3001;DHT22;1510;51.072;6.678;2024-03-22T07:23:08;13.60;92.50
3001;DHT22;1510;51.072;6.678;2024-03-22T07:25:34;13.60;92.50
3001;DHT22;1510;51.072;6.678;2024-03-22T07:28:00;13.70;92.50
3001;DHT22;1510;51.072;6.678;2024-03-22T07:30:27;13.90;92.60
3001;DHT22;1510;51.072;6.678;2024-03-22T07:32:54;14.00;92.60
3001;DHT22;1510;51.072;6.678;2024-03-22T07:35:21;14.10;92.50
3001;DHT22;1510;51.072;6.678;2024-03-22T07:37:47;14.20;90.90
3001;DHT22;1510;51.072;6.678;2024-03-22T07:40:14;14.20;88.60
3001;DHT22;1510;51.072;6.678;2024-03-22T07:42:40;14.30;88.60
3001;DHT22;1510;51.072;6.678;2024-03-22T07:45:08;14.50;85.20
3001;DHT22;1510;51.072;6.678;2024-03-22T07:47:34;14.50;81.10
3001;DHT22;1510;51.072;6.678;2024-03-22T07:50:03;14.50;81.10
3001;DHT22;1510;51.072;6.678;2024-03-22T07:52:29;14.50;81.00
3001;DHT22;1510;51.072;6.678;2024-03-22T07:54:55;14.60;81.10
3001;DHT22;1510;51.072;6.678;2024-03-22T07:57:21;14.70;81.20
3001;DHT22;1510;51.072;6.678;2024-03-22T07:59:48;14.80;81.20
3001;DHT22;1510;51.072;6.678;2024-03-22T08:02:14;15.00;81.50
3001;DHT22;1510;51.072;6.678;2024-03-22T08:04:41;15.20;81.60
3001;DHT22;1510;51.072;6.678;2024-03-22T08:07:08;15.40;81.70
3001;DHT22;1510;51.072;6.678;2024-03-22T08:09:35;15.50;74.10
3001;DHT22;1510;51.072;6.678;2024-03-22T08:12:01;15.60;74.30
3001;DHT22;1510;51.072;6.678;2024-03-22T08:14:28;15.60;73.70
3001;DHT22;1510;51.072;6.678;2024-03-22T08:16:54;15.50;72.20
3001;DHT22;1510;51.072;6.678;2024-03-22T08:19:20;15.30;71.60
3001;DHT22;1510;51.072;6.678;2024-03-22T08:21:46;15.30;73.90
3001;DHT22;1510;51.072;6.678;2024-03-22T08:24:14;15.40;69.90
3001;DHT22;1510;51.072;6.678;2024-03-22T08:26:40;15.30;73.70
3001;DHT22;1510;51.072;6.678;2024-03-22T08:29:10;15.40;73.90
3001;DHT22;1510;51.072;6.678;2024-03-22T08:31:37;15.30;73.80
3001;DHT22;1510;51.072;6.678;2024-03-22T08:34:03;15.30;71.80
3001;DHT22;1510;51.072;6.678;2024-03-22T08:36:31;15.40;73.30
3001;DHT22;1510;51.072;6.678;2024-03-22T08:38:57;15.40;68.90
3001;DHT22;1510;51.072;6.678;2024-03-22T08:41:25;15.60;69.60
3001;DHT22;1510;51.072;6.678;2024-03-22T08:43:51;15.50;66.50
3001;DHT22;1510;51.072;6.678;2024-03-22T08:46:17;15.60;66.10
3001;DHT22;1510;51.072;6.678;2024-03-22T08:48:46;15.80;66.30
3001;DHT22;1510;51.072;6.678;2024-03-22T08:51:12;15.90;66.40
3001;DHT22;1510;51.072;6.678;2024-03-22T08:53:39;15.80;66.30
3001;DHT22;1510;51.072;6.678;2024-03-22T08:56:05;16.00;66.50
3001;DHT22;1510;51.072;6.678;2024-03-22T08:58:33;15.90;66.40
3001;DHT22;1510;51.072;6.678;2024-03-22T09:00:59;15.70;66.10
3001;DHT22;1510;51.072;6.678;2024-03-22T09:03:25;15.90;66.40
3001;DHT22;1510;51.072;6.678;2024-03-22T09:05:52;16.00;66.50
3001;DHT22;1510;51.072;6.678;2024-03-22T09:08:18;16.00;66.30
3001;DHT22;1510;51.072;6.678;2024-03-22T09:10:47;16.20;66.40
3001;DHT22;1510;51.072;6.678;2024-03-22T09:13:12;16.50;58.90
3001;DHT22;1510;51.072;6.678;2024-03-22T09:15:41;16.20;58.40
3001;DHT22;1510;51.072;6.678;2024-03-22T09:18:06;16.10;59.10
3001;DHT22;1510;51.072;6.678;2024-03-22T09:20:34;16.30;58.90
3001;DHT22;1510;51.072;6.678;2024-03-22T09:22:59;16.60;66.90
3001;DHT22;1510;51.072;6.678;2024-03-22T09:25:27;16.90;54.50
3001;DHT22;1510;51.072;6.678;2024-03-22T09:27:53;16.80;50.20
3001;DHT22;1510;51.072;6.678;2024-03-22T09:30:20;16.80;50.30
3001;DHT22;1510;51.072;6.678;2024-03-22T09:32:47;16.60;50.90
3001;DHT22;1510;51.072;6.678;2024-03-22T09:35:14;16.60;55.20
3001;DHT22;1510;51.072;6.678;2024-03-22T09:37:40;16.60;50.90
3001;DHT22;1510;51.072;6.678;2024-03-22T09:40:07;16.50;51.60
3001;DHT22;1510;51.072;6.678;2024-03-22T09:42:35;16.50;50.00
3001;DHT22;1510;51.072;6.678;2024-03-22T09:45:05;16.80;50.20
3001;DHT22;1510;51.072;6.678;2024-03-22T09:47:33;16.90;50.40
3001;DHT22;1510;51.072;6.678;2024-03-22T09:50:04;16.90;50.30
3001;DHT22;1510;51.072;6.678;2024-03-22T09:52:32;17.10;50.50
3001;DHT22;1510;51.072;6.678;2024-03-22T09:54:59;16.90;50.30
3001;DHT22;1510;51.072;6.678;2024-03-22T09:57:26;16.80;50.20
3001;DHT22;1510;51.072;6.678;2024-03-22T09:59:53;16.60;50.10
3001;DHT22;1510;51.072;6.678;2024-03-22T10:02:20;16.80;50.30
3001;DHT22;1510;51.072;6.678;2024-03-22T10:04:48;16.70;50.80
3001;DHT22;1510;51.072;6.678;2024-03-22T10:07:17;16.40;49.80
3001;DHT22;1510;51.072;6.678;2024-03-22T10:09:44;16.40;55.20
3001;DHT22;1510;51.072;6.678;2024-03-22T10:12:10;16.30;51.10
3001;DHT22;1510;51.072;6.678;2024-03-22T10:14:37;16.10;51.30
3001;DHT22;1510;51.072;6.678;2024-03-22T10:17:05;16.10;49.60
3001;DHT22;1510;51.072;6.678;2024-03-22T10:19:33;16.00;57.70
3001;DHT22;1510;51.072;6.678;2024-03-22T10:21:59;16.10;50.90
3001;DHT22;1510;51.072;6.678;2024-03-22T10:24:28;16.30;57.10
3001;DHT22;1510;51.072;6.678;2024-03-22T10:26:54;16.30;50.30
3001;DHT22;1510;51.072;6.678;2024-03-22T10:29:21;16.40;49.80
3001;DHT22;1510;51.072;6.678;2024-03-22T10:31:47;16.30;50.70
3001;DHT22;1510;51.072;6.678;2024-03-22T10:34:15;16.10;49.60
3001;DHT22;1510;51.072;6.678;2024-03-22T10:36:42;16.20;49.70
3001;DHT22;1510;51.072;6.678;2024-03-22T10:39:11;16.10;49.60
3001;DHT22;1510;51.072;6.678;2024-03-22T10:41:39;16.40;49.80
3001;DHT22;1510;51.072;6.678;2024-03-22T10:44:06;16.70;53.90
3001;DHT22;1510;51.072;6.678;2024-03-22T10:46:35;16.50;50.20
3001;DHT22;1510;51.072;6.678;2024-03-22T10:49:02;16.40;49.90
3001;DHT22;1510;51.072;6.678;2024-03-22T10:51:30;16.40;50.30
3001;DHT22;1510;51.072;6.678;2024-03-22T10:53:58;16.20;49.70
3001;DHT22;1510;51.072;6.678;2024-03-22T10:56:26;16.20;49.70
3001;DHT22;1510;51.072;6.678;2024-03-22T10:58:55;16.10;50.50
3001;DHT22;1510;51.072;6.678;2024-03-22T11:01:25;16.00;49.50
3001;DHT22;1510;51.072;6.678;2024-03-22T11:04:03;15.90;57.90
3001;DHT22;1510;51.072;6.678;2024-03-22T11:06:30;15.80;58.70
3001;DHT22;1510;51.072;6.678;2024-03-22T11:08:59;15.60;57.80
3001;DHT22;1510;51.072;6.678;2024-03-22T11:11:28;15.40;57.70
3001;DHT22;1510;51.072;6.678;2024-03-22T11:13:56;15.60;58.00
3001;DHT22;1510;51.072;6.678;2024-03-22T11:16:22;15.80;57.90
3001;DHT22;1510;51.072;6.678;2024-03-22T11:18:49;16.20;58.50
3001;DHT22;1510;51.072;6.678;2024-03-22T11:21:15;16.40;58.60
3001;DHT22;1510;51.072;6.678;2024-03-22T11:23:45;16.60;50.10
3001;DHT22;1510;51.072;6.678;2024-03-22T11:26:11;16.80;50.20
3001;DHT22;1510;51.072;6.678;2024-03-22T11:28:38;16.90;50.30
3001;DHT22;1510;51.072;6.678;2024-03-22T11:31:05;16.60;50.10
3001;DHT22;1510;51.072;6.678;2024-03-22T11:33:32;17.00;50.50
3001;DHT22;1510;51.072;6.678;2024-03-22T11:35:58;17.10;50.40
3001;DHT22;1510;51.072;6.678;2024-03-22T11:38:26;17.30;50.50
3001;DHT22;1510;51.072;6.678;2024-03-22T11:40:52;17.20;41.80
3001;DHT22;1510;51.072;6.678;2024-03-22T11:43:20;17.40;42.00
3001;DHT22;1510;51.072;6.678;2024-03-22T11:45:46;17.50;50.40
3001;DHT22;1510;51.072;6.678;2024-03-22T11:48:15;17.40;42.00
3001;DHT22;1510;51.072;6.678;2024-03-22T11:50:42;17.20;41.80
3001;DHT22;1510;51.072;6.678;2024-03-22T11:53:08;17.00;41.20
3001;DHT22;1510;51.072;6.678;2024-03-22T11:55:36;17.00;33.40
3001;DHT22;1510;51.072;6.678;2024-03-22T11:58:01;17.10;32.60
3001;DHT22;1510;51.072;6.678;2024-03-22T12:00:28;17.00;32.50
3001;DHT22;1510;51.072;6.678;2024-03-22T12:02:54;17.20;32.70
3001;DHT22;1510;51.072;6.678;2024-03-22T12:05:22;17.10;32.60
3001;DHT22;1510;51.072;6.678;2024-03-22T12:07:48;16.90;32.40
3001;DHT22;1510;51.072;6.678;2024-03-22T12:10:17;16.80;32.30
3001;DHT22;1510;51.072;6.678;2024-03-22T12:12:43;16.50;32.10
3001;DHT22;1510;51.072;6.678;2024-03-22T12:15:10;16.40;32.00
3001;DHT22;1510;51.072;6.678;2024-03-22T12:17:36;16.20;31.80
3001;DHT22;1510;51.072;6.678;2024-03-22T12:20:06;16.50;32.10
3001;DHT22;1510;51.072;6.678;2024-03-22T12:22:35;16.60;36.70
3001;DHT22;1510;51.072;6.678;2024-03-22T12:25:02;16.70;32.20
3001;DHT22;1510;51.072;6.678;2024-03-22T12:27:29;16.60;32.20
3001;DHT22;1510;51.072;6.678;2024-03-22T12:29:56;16.70;37.50
3001;DHT22;1510;51.072;6.678;2024-03-22T12:32:22;16.50;32.10
3001;DHT22;1510;51.072;6.678;2024-03-22T12:34:50;16.30;31.90
3001;DHT22;1510;51.072;6.678;2024-03-22T12:37:16;16.10;31.70
3001;DHT22;1510;51.072;6.678;2024-03-22T12:39:44;16.10;40.70
3001;DHT22;1510;51.072;6.678;2024-03-22T12:42:10;16.10;32.00
3001;DHT22;1510;51.072;6.678;2024-03-22T12:44:37;16.30;34.70
3001;DHT22;1510;51.072;6.678;2024-03-22T12:47:02;16.50;40.80
3001;DHT22;1510;51.072;6.678;2024-03-22T12:49:29;16.70;32.20
3001;DHT22;1510;51.072;6.678;2024-03-22T12:51:55;16.90;32.40
3001;DHT22;1510;51.072;6.678;2024-03-22T12:54:22;17.00;32.50
3001;DHT22;1510;51.072;6.678;2024-03-22T12:56:49;17.10;32.60
3001;DHT22;1510;51.072;6.678;2024-03-22T12:59:16;17.40;32.80
3001;DHT22;1510;51.072;6.678;2024-03-22T13:01:42;17.50;32.90
3001;DHT22;1510;51.072;6.678;2024-03-22T13:04:09;17.40;32.80
3001;DHT22;1510;51.072;6.678;2024-03-22T13:06:35;17.40;32.80
3001;DHT22;1510;51.072;6.678;2024-03-22T13:09:02;17.60;33.10
3001;DHT22;1510;51.072;6.678;2024-03-22T13:11:30;17.60;33.00
3001;DHT22;1510;51.072;6.678;2024-03-22T13:13:58;17.50;32.90
3001;DHT22;1510;51.072;6.678;2024-03-22T13:16:24;17.60;33.10
3001;DHT22;1510;51.072;6.678;2024-03-22T13:18:51;17.70;33.20
3001;DHT22;1510;51.072;6.678;2024-03-22T13:21:17;17.80;33.20
3001;DHT22;1510;51.072;6.678;2024-03-22T13:23:44;18.10;33.50
3001;DHT22;1510;51.072;6.678;2024-03-22T13:26:10;18.00;33.40
3001;DHT22;1510;51.072;6.678;2024-03-22T13:28:37;17.90;33.30
3001;DHT22;1510;51.072;6.678;2024-03-22T13:31:05;17.70;33.10
3001;DHT22;1510;51.072;6.678;2024-03-22T13:33:33;17.40;32.90
3001;DHT22;1510;51.072;6.678;2024-03-22T13:35:59;16.70;35.00
3001;DHT22;1510;51.072;6.678;2024-03-22T13:38:26;16.20;40.10
3001;DHT22;1510;51.072;6.678;2024-03-22T13:40:55;15.70;40.40
3001;DHT22;1510;51.072;6.678;2024-03-22T13:43:22;15.50;48.90
3001;DHT22;1510;51.072;6.678;2024-03-22T13:45:50;15.40;48.80
3001;DHT22;1510;51.072;6.678;2024-03-22T13:48:21;15.40;49.00
3001;DHT22;1510;51.072;6.678;2024-03-22T13:50:49;15.30;48.80
3001;DHT22;1510;51.072;6.678;2024-03-22T13:53:16;15.30;48.80
3001;DHT22;1510;51.072;6.678;2024-03-22T13:55:42;15.20;48.80
3001;DHT22;1510;51.072;6.678;2024-03-22T13:58:09;15.10;48.60
3001;DHT22;1510;51.072;6.678;2024-03-22T14:00:35;15.20;48.70
3001;DHT22;1510;51.072;6.678;2024-03-22T14:03:02;15.10;48.70
3001;DHT22;1510;51.072;6.678;2024-03-22T14:05:30;15.10;48.60
3001;DHT22;1510;51.072;6.678;2024-03-22T14:07:57;15.00;48.60
3001;DHT22;1510;51.072;6.678;2024-03-22T14:10:23;14.70;48.30
3001;DHT22;1510;51.072;6.678;2024-03-22T14:12:52;14.70;48.30
3001;DHT22;1510;51.072;6.678;2024-03-22T14:15:18;14.40;48.00
3001;DHT22;1510;51.072;6.678;2024-03-22T14:17:45;14.50;48.10
3001;DHT22;1510;51.072;6.678;2024-03-22T14:20:11;14.50;52.10
3001;DHT22;1510;51.072;6.678;2024-03-22T14:22:40;14.60;51.90
3001;DHT22;1510;51.072;6.678;2024-03-22T14:25:06;14.60;48.30
3001;DHT22;1510;51.072;6.678;2024-03-22T14:27:34;14.40;48.80
3001;DHT22;1510;51.072;6.678;2024-03-22T14:30:00;14.30;55.70
3001;DHT22;1510;51.072;6.678;2024-03-22T14:32:27;14.20;48.90
3001;DHT22;1510;51.072;6.678;2024-03-22T14:34:52;14.30;53.20
3001;DHT22;1510;51.072;6.678;2024-03-22T14:37:19;14.20;56.50
3001;DHT22;1510;51.072;6.678;2024-03-22T14:39:46;14.10;63.60
3001;DHT22;1510;51.072;6.678;2024-03-22T14:42:13;13.90;59.40
3001;DHT22;1510;51.072;6.678;2024-03-22T14:44:39;14.00;64.60
3001;DHT22;1510;51.072;6.678;2024-03-22T14:47:06;13.90;63.60
3001;DHT22;1510;51.072;6.678;2024-03-22T14:49:32;13.80;64.40
3001;DHT22;1510;51.072;6.678;2024-03-22T14:51:59;13.80;64.40
3001;DHT22;1510;51.072;6.678;2024-03-22T14:54:25;13.70;64.40
3001;DHT22;1510;51.072;6.678;2024-03-22T14:56:53;13.70;64.40
3001;DHT22;1510;51.072;6.678;2024-03-22T14:59:19;13.60;64.30
3001;DHT22;1510;51.072;6.678;2024-03-22T15:01:46;13.60;64.30
3001;DHT22;1510;51.072;6.678;2024-03-22T15:04:12;13.60;64.30
3001;DHT22;1510;51.072;6.678;2024-03-22T15:06:39;13.30;64.00
3001;DHT22;1510;51.072;6.678;2024-03-22T15:09:05;13.20;64.20
3001;DHT22;1510;51.072;6.678;2024-03-22T15:11:35;13.10;72.10
3001;DHT22;1510;51.072;6.678;2024-03-22T15:14:03;12.90;76.70
3001;DHT22;1510;51.072;6.678;2024-03-22T15:16:29;12.80;79.50
3001;DHT22;1510;51.072;6.678;2024-03-22T15:18:55;12.70;80.10
3001;DHT22;1510;51.072;6.678;2024-03-22T15:21:22;12.60;79.30
3001;DHT22;1510;51.072;6.678;2024-03-22T15:23:48;12.50;79.20
3001;DHT22;1510;51.072;6.678;2024-03-22T15:26:15;12.50;79.20
3001;DHT22;1510;51.072;6.678;2024-03-22T15:28:41;12.50;79.20
3001;DHT22;1510;51.072;6.678;2024-03-22T15:31:09;12.50;80.00
3001;DHT22;1510;51.072;6.678;2024-03-22T15:33:35;12.50;79.20
3001;DHT22;1510;51.072;6.678;2024-03-22T15:36:02;12.50;79.20
3001;DHT22;1510;51.072;6.678;2024-03-22T15:38:28;12.50;86.20
3001;DHT22;1510;51.072;6.678;2024-03-22T15:40:55;12.20;91.80
3001;DHT22;1510;51.072;6.678;2024-03-22T15:43:21;12.10;98.50
3001;DHT22;1510;51.072;6.678;2024-03-22T15:45:48;12.00;98.40
3001;DHT22;1510;51.072;6.678;2024-03-22T15:48:15;11.90;98.40
3001;DHT22;1510;51.072;6.678;2024-03-22T15:50:46;11.80;99.90
3001;DHT22;1510;51.072;6.678;2024-03-22T15:53:12;11.70;99.90
3001;DHT22;1510;51.072;6.678;2024-03-22T15:55:39;11.70;99.90
3001;DHT22;1510;51.072;6.678;2024-03-22T15:58:04;11.70;99.90